Binghamton, NY

8:37 PM EST on February 09, 2016 (GMT -0500)
Binghamton Regional-Link | | Change Station
CLOSE
Current Station
Airport
Location: Binghamton,
Elevation: 1634 ft
Nearby Weather Stations

Elev 1634 ft 42.21 °N, 75.98 °W | Updated 12 minutes ago

Light Snow
Light Snow Mist
30 °F
Feels Like 24 °F
N
6
Wind Variable Wind from SSW

Today
High -- | Low -- °F
--% Chance of Precip.
Yesterday
High -- | Low -- °F
Precip. -- in
Pressure 29.49 in
Visibility 2.0 miles
Clouds Mostly Cloudy 400 ft
Overcast 2700 ft
Windchill 24 °F
Dew Point 28 °F
Humidity 92%
Rainfall 0.05 in
Snow Depth Not available.
7:08 AM 5:28 PM
Waxing Crescent, 3% visible
SPECI KBGM 100125Z 20005KT 2SM -SN BR BKN004 OVC027 M01/M02 A2949 RMK AO2 P0000 T10111022
Pressure 29.49 in
Visibility 2.0 miles
Clouds Mostly Cloudy 400 ft
Overcast 2700 ft
Windchill 24 °F
Dew Point 28 °F
Humidity 92%
Rainfall 0.05 in
Snow Depth Not available.
7:08 AM 5:28 PM
Waxing Crescent, 3% visible
SPECI KBGM 100125Z 20005KT 2SM -SN BR BKN004 OVC027 M01/M02 A2949 RMK AO2 P0000 T10111022

10-Day Weather Forecast

Almanac

Astronomy

Feb. 09, 2016 Rise Set
Actual Time
Civil Twilight
Nautical Twilight
Astronomical Twilight
Moon
Length of Visible Light
Length of Day
Tomorrow will be .
, % of the Moon is Illuminated

Today's Extremes

State Highs State Lows

Community

WunderPhotos

Upload Photos

1,891,760 photos uploaded!

WunderBlog® & News

Nearby

Air Quality

  Air Quality AQ Index Pollutant
Not available.

Snow Depth

Station Depth Elevation

Earthquake Activity

City Distance Mag. Time & Date
Minimum magnitude displayed is 2.5.

Coastal Water Temperatures

Place Temperature

Stations

Nearby Weather Stations

Station Location Temp. Windchill Dew Point Humidity Wind Precip. Elev Updated Type
                   

Watches & Warnings

There are currently no watches in effect.